Dickinson Theodore Roosevelt Regional Airport
KDIK : now visible

Airfield :











YOU CAN JOIN US ON...

 
LOGIN :

Register | Disclaimer

   EN    FR    IT 

 









Legend :    VFR   Marginal VFR   IFR   Intensive IFR   Very Intensive IFR
Visi :
Ceiling :
>= 8 km
>= 3000ft
5 to 8 km
1000 to 3000 ft
1500m to 5 km
500 to 1000 ft
800 to 1500m
200 to 500 ft
< 800m
< 200 ft
Symbols :   Thunderstorms  Fog  Heavy snow  Heavy precipitations  Wind > 20 kt






- Airport Elevation : 2592 ft


KDIK - Dickinson Theodore Roosevelt Regional

CURRENT METAR :
  • 080656Z AUTO 29008KT 10SM OVC100 01/M03 A2968 RMK AO2 SLP070 T00061028 400671017

EXPIRED METARs :
  • 080556Z AUTO 28007KT 10SM BKN100 00/M03 A2968 RMK AO2 SLP069 T00001028 10028 21017 52010
  • 080456Z AUTO 26008KT 10SM FEW070 SCT090 M01/M04 A2967 RMK AO2 SLP068 T10061039

TAF KDIK
Valid from the 08 at 06:00 until the 09 at 06:00 UTC


080530Z 0806/0906 30006KT P6SM SCT070
FM080800 01009G14KT P6SM VCFG OVC008
TEMPO 0808/0811 04011KT 1SM BR OVC002
FM081100 06009KT 3/4SM BR OVC002
FM081600 08013G21KT P6SM -SHSN OVC007
FM081800 05013G19KT 3/4SM -SN BR OVC011
FM090200 01008KT P6SM OVC020



MET'MAP, your aeronautical weather chart ! - Copyright ORBIFLY December 2007 - Disclaimer

ORBIFLY MET'MAP TEAM :

Programming & Development : Alexandra Zaïnal
Concept & original design : Baudouin d'Aumeries
Assistance for programming : Marc-Olivier Méhu
Technical & hardware support : Manuel Goepfert

Contact : metmap@orbifly.com




SOURCES & CREDITS :

   NOAA       Earth
Advisory